createdAt,value
2022-09-15T00:00:30.007Z,80.40
2022-09-15T00:03:35.517Z,80.49
2022-09-15T00:06:23.601Z,80.67
2022-09-15T00:09:11.712Z,80.74
2022-09-15T00:12:00.106Z,80.97
2022-09-15T00:14:47.942Z,81.20
2022-09-15T00:17:35.886Z,81.48
2022-09-15T00:20:23.863Z,81.86
2022-09-15T00:23:14.884Z,82.11
2022-09-15T00:26:08.187Z,82.47
2022-09-15T00:28:58.677Z,82.98
2022-09-15T00:31:46.631Z,83.01
2022-09-15T00:34:34.906Z,82.93
2022-09-15T00:37:22.940Z,83.34
2022-09-15T00:40:11.191Z,83.38
2022-09-15T00:42:58.879Z,84.00
2022-09-15T00:45:47.225Z,84.26
2022-09-15T00:48:37.763Z,84.66
2022-09-15T00:51:41.400Z,84.77
2022-09-15T00:54:41.456Z,85.34
2022-09-15T00:57:32.476Z,85.55
2022-09-15T01:00:24.179Z,86.09
2022-09-15T01:03:12.015Z,86.26
2022-09-15T01:06:41.247Z,86.26
2022-09-15T01:09:48.032Z,86.68
2022-09-15T01:12:36.037Z,87.36
2022-09-15T01:15:32.831Z,87.80
2022-09-15T01:18:29.506Z,87.83
2022-09-15T01:21:35.827Z,88.28
2022-09-15T01:24:41.729Z,88.03
2022-09-15T01:28:33.132Z,88.32
2022-09-15T01:32:22.649Z,88.84
2022-09-15T01:35:22.666Z,88.58
2022-09-15T01:38:26.783Z,88.42
2022-09-15T01:42:10.238Z,88.82
2022-09-15T01:45:07.676Z,88.96
2022-09-15T01:47:59.888Z,89.57
2022-09-15T01:50:54.225Z,89.82
2022-09-15T01:53:42.169Z,90.07
2022-09-15T01:56:30.085Z,90.47
2022-09-15T01:59:18.115Z,90.89
2022-09-15T02:02:20.791Z,91.70
2022-09-15T02:05:20.915Z,91.72
2022-09-15T02:08:28.700Z,92.38
2022-09-15T02:11:19.837Z,92.38
2022-09-15T02:14:22.309Z,91.89
2022-09-15T02:17:17.326Z,92.62
2022-09-15T02:20:20.729Z,92.67
2022-09-15T02:23:18.983Z,93.29
2022-09-15T02:26:16.971Z,93.51
2022-09-15T02:29:10.248Z,94.43
2022-09-15T02:32:06.779Z,94.35
2022-09-15T02:34:57.303Z,94.39
2022-09-15T02:37:46.873Z,95.04
2022-09-15T02:40:36.335Z,95.89
2022-09-15T02:43:24.563Z,95.50
2022-09-15T02:46:14.311Z,95.75
2022-09-15T02:49:03.521Z,96.12
2022-09-15T02:51:51.178Z,96.24
2022-09-15T02:54:39.203Z,96.60
2022-09-15T02:57:27.098Z,97.08
2022-09-15T03:00:16.990Z,97.07
2022-09-15T03:03:04.915Z,96.93
2022-09-15T03:05:52.833Z,96.78
2022-09-15T03:08:41.445Z,96.43
2022-09-15T03:11:31.424Z,96.65
2022-09-15T03:14:19.583Z,96.69
2022-09-15T03:17:07.423Z,97.19
2022-09-15T03:19:55.536Z,97.09
2022-09-15T03:22:47.787Z,97.89
2022-09-15T03:25:36.333Z,98.02
2022-09-15T03:28:24.379Z,97.58
2022-09-15T03:31:12.461Z,98.17
2022-09-15T03:34:00.316Z,98.07
2022-09-15T03:36:48.160Z,97.73
2022-09-15T03:39:36.036Z,97.72
2022-09-15T03:42:24.024Z,97.65
2022-09-15T03:45:11.889Z,97.61
2022-09-15T03:47:59.844Z,97.78
2022-09-15T03:50:48.111Z,97.42
2022-09-15T03:53:39.340Z,96.93
2022-09-15T03:56:33.467Z,97.18
2022-09-15T03:59:21.724Z,97.46
2022-09-15T04:02:09.781Z,97.53
2022-09-15T04:04:57.732Z,97.28
2022-09-15T04:07:45.625Z,97.26
2022-09-15T04:10:33.931Z,97.55
2022-09-15T04:13:27.922Z,97.25
2022-09-15T04:16:19.749Z,97.20
2022-09-15T04:19:07.715Z,97.19
2022-09-15T04:21:55.335Z,97.08
2022-09-15T04:24:44.304Z,96.63
2022-09-15T04:27:34.626Z,95.93
2022-09-15T04:30:22.352Z,95.77
2022-09-15T04:33:10.270Z,95.47
2022-09-15T04:36:04.426Z,95.11
2022-09-15T04:38:52.723Z,94.89
2022-09-15T04:41:40.707Z,94.81
2022-09-15T04:44:29.317Z,94.61
2022-09-15T04:47:17.750Z,94.63
2022-09-15T04:50:06.434Z,94.82
2022-09-15T04:52:53.926Z,94.54
2022-09-15T04:55:42.646Z,94.42
2022-09-15T04:58:30.787Z,93.59
2022-09-15T05:01:31.247Z,93.39
2022-09-15T05:04:19.228Z,92.74
2022-09-15T05:07:07.425Z,92.30
2022-09-15T05:09:55.640Z,91.71
2022-09-15T05:12:43.518Z,91.69
2022-09-15T05:15:33.724Z,91.55
2022-09-15T05:18:21.740Z,91.26
2022-09-15T05:21:13.519Z,91.04
2022-09-15T05:24:01.824Z,90.49
2022-09-15T05:26:50.113Z,90.43
2022-09-15T05:29:37.803Z,89.79
2022-09-15T05:32:26.440Z,88.89
2022-09-15T05:35:14.238Z,87.91
2022-09-15T05:38:02.208Z,87.13
2022-09-15T05:40:50.771Z,85.97
2022-09-15T05:43:40.157Z,85.14
2022-09-15T05:46:29.535Z,84.63
2022-09-15T05:49:17.491Z,83.74
2022-09-15T05:52:05.477Z,83.76
2022-09-15T05:54:58.327Z,83.04
2022-09-15T05:57:47.272Z,82.24
2022-09-15T06:00:35.496Z,82.58
2022-09-15T06:03:28.686Z,82.08
2022-09-15T06:06:18.241Z,82.01
2022-09-15T06:09:06.788Z,81.84
2022-09-15T06:11:54.296Z,81.52
2022-09-15T06:14:43.578Z,81.09
2022-09-15T06:17:34.288Z,80.63
2022-09-15T06:20:27.021Z,80.34
2022-09-15T06:23:15.042Z,79.92
2022-09-15T06:26:16.844Z,80.06
2022-09-15T06:29:05.970Z,80.13
2022-09-15T06:32:03.254Z,79.77
2022-09-15T06:34:51.220Z,79.81
2022-09-15T06:37:41.975Z,79.29
2022-09-15T06:40:30.857Z,78.87
2022-09-15T06:43:18.810Z,77.72
2022-09-15T06:46:29.113Z,76.23
2022-09-15T06:49:18.112Z,74.86
2022-09-15T06:52:14.672Z,73.51
2022-09-15T06:55:21.601Z,68.32
2022-09-15T06:58:09.376Z,58.67
2022-09-15T07:01:04.279Z,54.59
2022-09-15T07:03:52.918Z,48.48
2022-09-15T07:06:40.837Z,44.04
2022-09-15T07:09:28.887Z,41.96
2022-09-15T07:12:16.680Z,40.67
2022-09-15T07:15:05.498Z,37.17
2022-09-15T07:17:53.911Z,35.70
2022-09-15T07:20:42.102Z,35.19
2022-09-15T07:23:30.214Z,34.80
2022-09-15T07:26:27.516Z,34.54
2022-09-15T07:29:15.171Z,33.14
2022-09-15T07:32:03.533Z,33.01
2022-09-15T07:34:54.499Z,34.51
2022-09-15T07:37:44.869Z,34.17
2022-09-15T07:40:32.659Z,35.23
2022-09-15T07:43:21.986Z,34.62
2022-09-15T07:46:11.173Z,33.78
2022-09-15T07:49:03.348Z,33.09
2022-09-15T07:51:52.760Z,32.14
2022-09-15T07:54:40.491Z,31.71
2022-09-15T07:57:28.426Z,31.14
2022-09-15T08:00:17.689Z,30.57
2022-09-15T08:03:05.580Z,29.67
2022-09-15T08:06:01.891Z,29.60
2022-09-15T08:08:53.988Z,30.05
2022-09-15T08:11:54.963Z,32.20
2022-09-15T08:14:45.048Z,34.45
2022-09-15T08:17:35.610Z,37.20
2022-09-15T08:20:29.075Z,40.00
2022-09-15T08:23:20.986Z,42.61
2022-09-15T08:26:14.557Z,44.91
2022-09-15T08:29:16.578Z,46.57
2022-09-15T08:32:08.267Z,48.71
2022-09-15T08:35:00.099Z,50.98
2022-09-15T08:37:47.919Z,52.75
2022-09-15T08:40:38.067Z,53.64
2022-09-15T08:43:30.323Z,54.36
2022-09-15T08:46:32.170Z,56.04
2022-09-15T08:49:47.814Z,57.99
2022-09-15T08:53:02.192Z,60.04
2022-09-15T08:55:54.419Z,60.40
2022-09-15T08:58:42.332Z,61.07
2022-09-15T09:02:07.131Z,62.63
2022-09-15T09:05:13.967Z,63.19
2022-09-15T09:08:07.979Z,61.66
2022-09-15T09:11:19.597Z,59.44
2022-09-15T09:14:31.885Z,57.89
2022-09-15T09:17:35.535Z,56.66
2022-09-15T09:21:13.294Z,56.60
2022-09-15T09:24:27.778Z,56.76
2022-09-15T09:27:20.697Z,56.07
2022-09-15T09:30:21.347Z,55.47
2022-09-15T09:33:31.023Z,54.41
2022-09-15T09:36:19.890Z,52.90
2022-09-15T09:39:15.412Z,50.82
2022-09-15T09:42:05.969Z,48.31
2022-09-15T09:44:54.738Z,45.29
2022-09-15T09:47:43.376Z,42.90
2022-09-15T09:50:43.250Z,43.09
2022-09-15T09:53:33.925Z,45.33
2022-09-15T09:56:27.454Z,47.53
2022-09-15T09:59:32.055Z,48.55
2022-09-15T10:02:26.038Z,48.89
2022-09-15T10:05:20.804Z,48.12
2022-09-15T10:08:20.593Z,48.75
2022-09-15T10:11:10.740Z,47.55
2022-09-15T10:13:59.027Z,48.73
2022-09-15T10:17:11.032Z,48.77
2022-09-15T10:19:59.500Z,49.32
2022-09-15T10:22:47.454Z,49.51
2022-09-15T10:25:58.686Z,49.76
2022-09-15T10:29:14.277Z,48.13
2022-09-15T10:32:24.972Z,45.83
2022-09-15T10:35:19.543Z,44.60
2022-09-15T10:38:14.210Z,43.48
2022-09-15T10:41:29.763Z,43.98
2022-09-15T10:45:22.840Z,44.29
2022-09-15T10:48:46.799Z,45.49
2022-09-15T10:52:16.332Z,43.81
2022-09-15T10:55:52.611Z,42.09
2022-09-15T10:59:52.884Z,40.35
2022-09-15T11:03:25.300Z,41.70
2022-09-15T11:06:40.327Z,42.87
2022-09-15T11:09:46.622Z,44.06
2022-09-15T11:13:01.619Z,44.55
2022-09-15T11:16:25.864Z,45.40
2022-09-15T11:19:35.503Z,46.16
2022-09-15T11:22:31.611Z,45.77
2022-09-15T11:25:28.239Z,45.47
2022-09-15T11:28:28.294Z,45.61
2022-09-15T11:31:24.596Z,45.67
2022-09-15T11:34:27.088Z,46.02
2022-09-15T11:37:21.625Z,46.15
2022-09-15T11:40:33.825Z,46.12
2022-09-15T11:43:50.887Z,46.39
2022-09-15T11:47:14.260Z,46.25
2022-09-15T11:50:11.035Z,44.37
2022-09-15T11:53:09.423Z,42.68
2022-09-15T11:56:20.642Z,42.09
2022-09-15T11:59:20.969Z,40.38
2022-09-15T12:02:31.031Z,39.81
2022-09-15T12:06:04.498Z,39.29
2022-09-15T12:09:02.597Z,39.00
2022-09-15T12:12:04.834Z,40.37
2022-09-15T12:14:53.122Z,41.34
2022-09-15T12:18:37.166Z,41.67
2022-09-15T12:21:36.011Z,42.78
2022-09-15T12:24:48.508Z,44.36
2022-09-15T12:27:36.402Z,46.06
2022-09-15T12:30:42.944Z,46.98
2022-09-15T12:33:59.585Z,47.53
2022-09-15T12:36:53.424Z,48.67
2022-09-15T12:39:42.195Z,48.64
2022-09-15T12:42:32.264Z,49.07
2022-09-15T12:45:27.333Z,50.06
2022-09-15T12:48:34.237Z,48.43
2022-09-15T12:51:28.116Z,47.84
2022-09-15T12:54:27.880Z,47.29
2022-09-15T12:57:36.985Z,51.26
2022-09-15T13:00:54.839Z,53.05
2022-09-15T13:07:52.969Z,54.37
2022-09-15T13:11:09.510Z,54.86
2022-09-15T13:14:03.961Z,55.17
2022-09-15T13:17:06.748Z,56.03
2022-09-15T13:19:59.972Z,55.95
2022-09-15T13:22:56.456Z,56.37
2022-09-15T13:25:46.631Z,56.66
2022-09-15T13:28:35.383Z,57.21
2022-09-15T13:31:53.525Z,55.66
2022-09-15T13:35:07.840Z,54.08
2022-09-15T13:38:16.928Z,53.78
2022-09-15T13:41:40.379Z,53.71
2022-09-15T13:44:37.673Z,54.37
2022-09-15T13:47:31.793Z,53.98
2022-09-15T13:50:41.553Z,51.17
2022-09-15T13:53:43.645Z,50.15
2022-09-15T13:56:40.069Z,48.77
2022-09-15T13:59:33.141Z,46.87
2022-09-15T14:02:21.265Z,45.52
2022-09-15T14:05:09.582Z,44.86
2022-09-15T14:08:04.344Z,45.30
2022-09-15T14:10:58.435Z,45.58
2022-09-15T14:13:51.264Z,45.73
2022-09-15T14:16:39.915Z,45.12
2022-09-15T14:19:36.901Z,46.02
2022-09-15T14:25:51.684Z,52.28
2022-09-15T14:29:02.256Z,56.82
2022-09-15T14:32:07.367Z,59.59
2022-09-15T14:34:59.988Z,62.41
2022-09-15T14:38:00.010Z,64.34
2022-09-15T14:40:56.965Z,66.60
2022-09-15T14:43:48.967Z,67.61
2022-09-15T14:46:38.464Z,68.58
2022-09-15T14:49:29.027Z,68.25
2022-09-15T14:52:36.112Z,68.51
2022-09-15T14:55:50.742Z,68.21
2022-09-15T14:58:52.980Z,68.49
2022-09-15T15:02:20.332Z,68.82
2022-09-15T15:05:22.833Z,69.32
2022-09-15T15:08:39.458Z,68.83
2022-09-15T15:11:29.556Z,67.83
2022-09-15T15:14:18.739Z,65.66
2022-09-15T15:17:07.017Z,63.72
2022-09-15T15:20:08.849Z,63.26
2022-09-15T15:23:26.008Z,63.78
2022-09-15T15:26:42.660Z,64.62
2022-09-15T15:29:48.432Z,65.21
2022-09-15T15:32:46.126Z,65.40
2022-09-15T15:35:35.943Z,65.42
2022-09-15T15:38:25.643Z,64.80
2022-09-15T15:41:35.622Z,64.62
2022-09-15T15:44:29.022Z,64.72
2022-09-15T15:47:19.808Z,64.98
2022-09-15T15:50:28.502Z,65.05
2022-09-15T15:53:16.687Z,65.57
2022-09-15T15:56:04.894Z,65.74
2022-09-15T15:58:53.157Z,66.31
2022-09-15T16:01:42.110Z,66.16
2022-09-15T16:04:35.126Z,66.56
2022-09-15T16:07:46.729Z,66.77
2022-09-15T16:10:51.096Z,67.69
2022-09-15T16:13:39.685Z,67.21
2022-09-15T16:16:28.160Z,67.34
2022-09-15T16:19:16.649Z,67.16
2022-09-15T16:22:05.498Z,67.46
2022-09-15T16:24:55.943Z,68.80
2022-09-15T16:27:43.878Z,69.46
2022-09-15T16:30:33.277Z,70.54
2022-09-15T16:33:21.167Z,71.69
2022-09-15T16:36:16.212Z,72.43
2022-09-15T16:39:04.267Z,73.57
2022-09-15T16:41:52.959Z,74.18
2022-09-15T16:44:41.049Z,75.21
2022-09-15T16:47:28.843Z,75.61
2022-09-15T16:50:31.149Z,76.10
2022-09-15T16:53:31.123Z,76.64
2022-09-15T16:56:19.569Z,77.14
2022-09-15T16:59:26.850Z,77.32
2022-09-15T17:02:16.344Z,77.93
2022-09-15T17:05:25.123Z,77.99
2022-09-15T17:08:14.891Z,78.58
2022-09-15T17:11:05.265Z,79.31
2022-09-15T17:13:53.455Z,80.09
2022-09-15T17:16:41.371Z,81.65
2022-09-15T17:19:29.266Z,81.28
2022-09-15T17:22:17.114Z,82.03
2022-09-15T17:25:37.445Z,82.16
2022-09-15T17:28:36.710Z,83.45
2022-09-15T17:31:25.286Z,83.60
2022-09-15T17:34:14.568Z,84.01
2022-09-15T17:37:02.293Z,83.90
2022-09-15T17:39:58.697Z,84.88
2022-09-15T17:43:01.891Z,84.83
2022-09-15T17:46:07.969Z,85.36
2022-09-15T17:48:55.956Z,85.65
2022-09-15T17:51:43.988Z,86.21
2022-09-15T17:54:32.352Z,86.44
2022-09-15T17:57:32.120Z,87.07
2022-09-15T18:01:08.835Z,87.62
2022-09-15T18:04:13.382Z,87.70
2022-09-15T18:07:01.301Z,88.02
2022-09-15T18:09:51.672Z,88.31
2022-09-15T18:12:43.979Z,87.85
2022-09-15T18:15:35.610Z,87.75
2022-09-15T18:18:32.237Z,87.32
2022-09-15T18:21:29.869Z,86.44
2022-09-15T18:24:18.030Z,85.80
2022-09-15T18:27:06.494Z,84.78
2022-09-15T18:29:56.965Z,84.23
2022-09-15T18:32:45.507Z,83.52
2022-09-15T18:35:35.229Z,83.19
2022-09-15T18:38:23.850Z,82.62
2022-09-15T18:41:11.985Z,82.07
2022-09-15T18:43:59.573Z,81.83
2022-09-15T18:46:47.501Z,81.16
2022-09-15T18:49:35.562Z,80.83
2022-09-15T18:52:23.708Z,80.79
2022-09-15T18:55:22.055Z,80.44
2022-09-15T18:58:14.306Z,80.11
2022-09-15T19:01:06.100Z,80.29
2022-09-15T19:03:54.409Z,80.26
2022-09-15T19:06:42.783Z,79.98
2022-09-15T19:09:31.702Z,79.57
2022-09-15T19:15:11.532Z,79.62
2022-09-15T19:21:21.872Z,79.60
2022-09-15T19:24:43.134Z,79.54
2022-09-15T19:27:31.087Z,79.35
2022-09-15T19:30:19.245Z,78.99
2022-09-15T19:33:11.293Z,79.18
2022-09-15T19:36:26.927Z,79.02
2022-09-15T19:39:15.401Z,79.57
2022-09-15T19:42:05.598Z,79.59
2022-09-15T19:44:54.447Z,79.44
2022-09-15T19:47:42.557Z,79.94
2022-09-15T19:50:30.494Z,79.45
2022-09-15T19:53:18.788Z,80.18
2022-09-15T19:56:08.035Z,80.94
2022-09-15T19:58:58.458Z,82.14
2022-09-15T20:01:46.849Z,83.44
2022-09-15T20:04:53.263Z,84.09
2022-09-15T20:07:41.223Z,84.89
2022-09-15T20:10:31.736Z,86.01
2022-09-15T20:13:20.580Z,86.82
2022-09-15T20:16:08.584Z,86.62
2022-09-15T20:18:57.022Z,86.12
2022-09-15T20:21:51.574Z,86.33
2022-09-15T20:24:43.117Z,86.70
2022-09-15T20:27:32.609Z,87.53
2022-09-15T20:30:21.523Z,87.42
2022-09-15T20:33:12.538Z,88.04
2022-09-15T20:36:07.703Z,88.24
2022-09-15T20:38:56.763Z,89.18
2022-09-15T20:41:55.793Z,88.85
2022-09-15T20:44:47.247Z,88.94
2022-09-15T20:47:35.323Z,88.96
2022-09-15T20:50:23.180Z,89.09
2022-09-15T20:53:11.232Z,88.51
2022-09-15T20:56:02.721Z,88.65
2022-09-15T20:58:51.198Z,88.83
2022-09-15T21:01:40.149Z,89.18
2022-09-15T21:04:28.368Z,89.29
2022-09-15T21:07:16.972Z,89.41
2022-09-15T21:10:05.429Z,89.38
2022-09-15T21:12:54.339Z,89.54
2022-09-15T21:15:42.844Z,89.18
2022-09-15T21:18:36.906Z,89.36
2022-09-15T21:21:31.283Z,88.69
2022-09-15T21:24:22.620Z,89.65
2022-09-15T21:27:27.026Z,89.03
2022-09-15T21:30:15.135Z,89.36
2022-09-15T21:33:03.056Z,89.53
2022-09-15T21:35:51.148Z,89.66
2022-09-15T21:38:44.015Z,90.32
2022-09-15T21:41:31.776Z,90.44
2022-09-15T21:44:19.709Z,90.86
2022-09-15T21:47:07.211Z,91.29
2022-09-15T21:49:55.330Z,91.62
2022-09-15T21:52:43.522Z,91.75
2022-09-15T21:55:31.307Z,91.96
2022-09-15T21:58:21.524Z,92.73
2022-09-15T22:01:35.381Z,92.55
2022-09-15T22:04:23.380Z,92.98
2022-09-15T22:07:11.333Z,93.28
2022-09-15T22:09:59.305Z,93.01
2022-09-15T22:12:47.160Z,93.66
2022-09-15T22:15:35.562Z,94.35
2022-09-15T22:18:23.127Z,94.43
2022-09-15T22:21:24.261Z,94.26
2022-09-15T22:24:14.150Z,94.48
2022-09-15T22:27:01.862Z,94.50
2022-09-15T22:29:49.784Z,94.53
2022-09-15T22:32:37.941Z,94.13
2022-09-15T22:35:26.026Z,94.33
2022-09-15T22:38:13.832Z,93.82
2022-09-15T22:41:09.235Z,93.98
2022-09-15T22:43:57.724Z,94.37
2022-09-15T22:46:46.408Z,93.80
2022-09-15T22:49:34.372Z,94.37
2022-09-15T22:52:22.222Z,94.12
2022-09-15T22:55:10.157Z,94.39
2022-09-15T22:57:58.531Z,94.43
2022-09-15T23:00:46.501Z,94.97
2022-09-15T23:03:34.208Z,94.95
2022-09-15T23:06:23.673Z,94.55
2022-09-15T23:09:11.606Z,94.61
2022-09-15T23:11:59.685Z,93.74
2022-09-15T23:14:47.639Z,93.39
2022-09-15T23:17:35.580Z,93.03
2022-09-15T23:20:23.426Z,92.61
2022-09-15T23:23:11.501Z,92.30
2022-09-15T23:25:59.322Z,92.23
2022-09-15T23:28:49.364Z,92.62
2022-09-15T23:31:36.992Z,92.31
2022-09-15T23:34:24.855Z,92.93
2022-09-15T23:37:12.801Z,92.91
2022-09-15T23:40:00.727Z,93.11
2022-09-15T23:42:48.775Z,93.98
2022-09-15T23:45:37.152Z,93.74
2022-09-15T23:48:25.014Z,93.90
2022-09-15T23:51:13.160Z,94.38
2022-09-15T23:54:02.407Z,94.32
2022-09-15T23:56:50.208Z,94.49
2022-09-15T23:59:38.174Z,94.36
